Time;durP1;ratioP1;P1;durP2;ratioP2;P2;SDS_P1;SDS_P2;PMS_P1;PMS_P2;Temp;Humidity;BMP_temperature;BMP_pressure;BME280_temperature;BME280_humidity;BME280_pressure;Samples;Min_cycle;Max_cycle;Signal;HPM_P1;HPM_P2
2021/06/07 00:02:01;;;;;;;1.50;1.40;;;23.30;45.90;;;27.01;31.40;101927.38;5154988;27;20051;-54
2021/06/07 00:04:29;;;;;;;1.65;1.55;;;23.30;46.00;;;27.02;31.33;101929.09;5154742;27;20121;-52
2021/06/07 00:06:57;;;;;;;1.60;1.50;;;23.30;46.00;;;27.01;31.20;101926.53;5154605;27;20061;-54
2021/06/07 00:09:23;;;;;;;1.90;1.80;;;23.30;46.00;;;26.97;31.18;101918.69;5154530;27;20047;-52
2021/06/07 00:12:11;;;;;;;1.60;1.50;;;23.30;46.00;;;26.95;31.33;101920.63;5154446;27;20035;-52
2021/06/07 00:14:37;;;;;;;1.70;1.60;;;23.30;46.10;;;26.97;31.15;101920.50;5154901;27;20042;-50
2021/06/07 00:17:05;;;;;;;1.67;1.58;;;23.30;46.10;;;26.95;31.35;101915.25;5135024;27;20097;-52
2021/06/07 00:19:36;;;;;;;1.83;1.73;;;23.20;46.00;;;26.94;31.29;101924.25;5154276;27;20043;-53
2021/06/07 00:22:03;;;;;;;1.73;1.63;;;23.20;46.00;;;26.96;31.30;101916.97;5154731;27;20047;-55
2021/06/07 00:24:29;;;;;;;1.73;1.63;;;23.30;46.10;;;26.93;31.36;101911.84;5154330;27;20395;-53
2021/06/07 00:26:55;;;;;;;1.90;1.80;;;23.20;46.10;;;26.95;31.13;101919.78;5135716;27;20483;-52
2021/06/07 00:29:21;;;;;;;1.65;1.55;;;23.20;46.10;;;26.94;31.18;101920.72;5135361;27;20046;-53
2021/06/07 00:31:47;;;;;;;1.88;1.77;;;23.20;46.10;;;26.92;31.27;101920.84;5154206;27;20046;-48
2021/06/07 00:34:13;;;;;;;1.48;1.38;;;23.20;46.10;;;26.93;31.33;101919.88;5154893;27;20455;-53
2021/06/07 00:36:39;;;;;;;1.50;1.40;;;23.20;46.10;;;26.93;31.34;101921.69;5154029;27;20050;-53
2021/06/07 00:39:11;;;;;;;1.80;1.70;;;23.20;46.10;;;26.86;31.35;101912.34;5135747;27;20385;-53
2021/06/07 00:41:37;;;;;;;;;;;23.20;46.20;;;27.03;31.27;101928.16;5154854;27;20545;-55
2021/06/07 00:44:09;;;;;;;1.70;1.60;;;23.20;46.20;;;26.95;31.17;101923.31;5154047;27;19958;-55
2021/06/07 00:46:35;;;;;;;1.70;1.60;;;23.20;46.20;;;26.91;31.28;101918.25;5135562;27;20043;-51
2021/06/07 00:49:01;;;;;;;1.90;1.80;;;23.20;46.20;;;26.91;31.56;101916.44;5153953;27;20054;-55
2021/06/07 00:51:27;;;;;;;1.60;1.50;;;23.20;46.20;;;26.86;31.42;101915.03;5153853;27;20043;-53
2021/06/07 00:53:53;;;;;;;1.77;1.67;;;23.20;46.20;;;26.87;31.36;101909.56;5153956;27;20058;-56
2021/06/07 00:56:19;;;;;;;1.98;1.88;;;23.20;46.20;;;26.87;31.48;101914.94;5153956;27;20042;-53
2021/06/07 00:58:47;;;;;;;1.60;1.50;;;23.20;46.30;;;26.84;31.41;101912.47;5153811;27;20047;-52
2021/06/07 01:01:19;;;;;;;1.70;1.60;;;23.20;46.30;;;26.85;31.52;101921.38;5154374;27;20417;-54
2021/06/07 01:03:48;;;;;;;1.60;1.50;;;23.20;46.30;;;26.85;31.42;101927.63;5154574;27;20047;-53
2021/06/07 01:06:15;;;;;;;1.70;1.60;;;23.20;46.30;;;26.85;31.46;101921.38;5150251;27;20480;-51
2021/06/07 01:08:42;;;;;;;1.50;1.40;;;23.20;46.30;;;26.79;31.56;101920.84;5153609;27;20548;-55
2021/06/07 01:11:08;;;;;;;1.58;1.48;;;23.20;46.30;;;26.83;31.55;101920.63;5153657;27;20377;-54
2021/06/07 01:13:35;;;;;;;1.67;1.58;;;23.10;46.30;;;26.80;31.58;101919.88;5154086;27;20078;-55
2021/06/07 01:16:02;;;;;;;1.60;1.50;;;23.10;46.30;;;26.79;31.47;101920.00;5154020;27;20042;-56
2021/06/07 01:18:30;;;;;;;1.60;1.50;;;23.10;46.30;;;26.79;31.53;101917.31;5153701;27;20039;-53
2021/06/07 01:21:06;;;;;;;1.40;1.30;;;23.10;46.30;;;26.79;31.64;101920.84;5135900;27;20122;-52
2021/06/07 01:23:33;;;;;;;1.70;1.60;;;23.10;46.40;;;26.82;31.59;101926.97;5153528;27;20038;-54
2021/06/07 01:26:01;;;;;;;1.70;1.60;;;23.10;46.40;;;26.74;31.62;101909.56;5153522;27;20047;-55
2021/06/07 01:28:28;;;;;;;1.90;1.80;;;23.10;46.40;;;26.80;31.44;101914.50;5138512;27;20463;-52
2021/06/07 01:30:55;;;;;;;1.80;1.70;;;23.10;46.40;;;26.78;31.55;101919.13;5157519;27;20069;-52
2021/06/07 01:33:23;;;;;;;1.73;1.63;;;23.10;46.40;;;26.75;31.72;101908.63;5156997;27;20055;-52
2021/06/07 01:35:56;;;;;;;2.15;2.05;;;23.10;46.40;;;26.73;31.57;101917.72;5157665;27;20043;-56
2021/06/07 01:38:22;;;;;;;1.50;1.40;;;23.10;46.40;;;26.74;31.64;101914.94;5157571;27;20045;-53
2021/06/07 01:41:03;;;;;;;1.70;1.60;;;23.10;46.40;;;26.73;31.51;101915.91;5156999;27;20046;-57
2021/06/07 01:43:31;;;;;;;1.73;1.63;;;23.10;46.40;;;26.77;31.50;101919.25;5156959;27;20062;-54
2021/06/07 01:45:58;;;;;;;1.77;1.67;;;23.10;46.40;;;26.72;31.68;101911.50;5156841;27;20545;-54
2021/06/07 01:48:24;;;;;;;1.67;1.58;;;23.10;46.50;;;26.74;31.54;101919.44;5156673;27;20068;-54
2021/06/07 01:50:55;;;;;;;1.83;1.73;;;23.10;46.50;;;26.73;31.59;101923.09;5157142;27;20137;-53
2021/06/07 01:53:25;;;;;;;1.70;1.60;;;23.10;46.50;;;26.74;31.46;101922.13;5156778;27;20051;-54
2021/06/07 01:55:58;;;;;;;1.80;1.70;;;23.10;46.50;;;26.70;31.51;101918.81;5156662;27;20484;-54
2021/06/07 01:58:25;;;;;;;1.70;1.60;;;23.10;46.50;;;26.70;31.72;101915.28;5138442;27;20551;-55
2021/06/07 02:01:04;;;;;;;1.70;1.60;;;23.00;46.40;;;26.67;31.73;101912.81;5157060;27;20047;-52
2021/06/07 02:03:30;;;;;;;1.50;1.40;;;23.10;46.50;;;26.68;31.76;101911.81;5156726;27;20043;-53
2021/06/07 02:06:02;;;;;;;2.10;1.90;;;23.00;46.40;;;26.69;31.75;101913.56;5156919;27;20049;-48
2021/06/07 02:08:30;;;;;;;1.70;1.60;;;23.00;46.50;;;26.69;31.69;101906.34;5156411;27;20058;-53
2021/06/07 02:11:13;;;;;;;1.88;1.77;;;23.00;46.50;;;26.65;31.70;101918.28;5156475;27;20046;-52
2021/06/07 02:13:39;;;;;;;1.80;1.65;;;23.00;46.50;;;26.67;31.64;101902.06;5156554;27;20051;-55
2021/06/07 02:16:12;;;;;;;1.80;1.70;;;23.00;46.50;;;26.65;31.77;101910.22;5156285;27;20051;-53
2021/06/07 02:18:38;;;;;;;1.58;1.48;;;23.00;46.50;;;26.68;31.63;101906.47;5156447;27;20126;-54
2021/06/07 02:21:10;;;;;;;2.20;2.00;;;23.00;46.50;;;26.66;31.71;101908.41;5156324;27;20539;-50
2021/06/07 02:23:36;;;;;;;1.60;1.50;;;23.00;46.50;;;26.65;31.71;101902.19;5156890;27;20043;-51
2021/06/07 02:26:03;;;;;;;1.70;1.60;;;23.00;46.50;;;26.64;31.79;101907.66;5156281;27;20047;-55
2021/06/07 02:28:29;;;;;;;1.90;1.80;;;23.00;46.50;;;26.64;31.73;101911.19;5155995;27;20150;-54
2021/06/07 02:30:57;;;;;;;1.80;1.70;;;23.00;46.60;;;26.67;31.71;101912.81;5156236;27;20129;-52
2021/06/07 02:33:25;;;;;;;1.95;1.85;;;23.00;46.60;;;26.63;31.63;101909.50;5156082;27;20046;-54
2021/06/07 02:35:52;;;;;;;2.10;2.00;;;23.00;46.60;;;26.64;31.88;101911.19;5156068;27;20045;-53
2021/06/07 02:38:20;;;;;;;1.65;1.55;;;23.00;46.60;;;26.65;31.73;101918.28;5155130;27;20057;-56
2021/06/07 02:40:50;;;;;;;1.90;1.80;;;23.00;46.60;;;26.63;31.76;101920.22;5156090;27;20046;-53
2021/06/07 02:43:16;;;;;;;2.05;1.95;;;23.00;46.60;;;26.61;31.66;101922.09;5155918;27;20050;-52
2021/06/07 02:45:42;;;;;;;1.50;1.40;;;23.00;46.60;;;26.63;32.00;101922.91;5155612;27;20053;-54
2021/06/07 02:48:09;;;;;;;1.70;1.60;;;23.00;46.60;;;26.60;31.75;101925.75;5155472;27;20412;-55
2021/06/07 02:50:40;;;;;;;1.63;1.52;;;23.00;46.60;;;26.57;31.83;101915.25;5155571;27;20563;-51
2021/06/07 02:53:07;;;;;;;1.70;1.60;;;23.00;46.60;;;26.60;31.72;101917.72;5155455;27;20061;-52
2021/06/07 02:55:58;;;;;;;1.80;1.70;;;23.00;46.60;;;26.60;31.78;101917.72;5155434;27;20067;-49
2021/06/07 02:58:25;;;;;;;1.73;1.63;;;23.00;46.60;;;26.61;31.76;101922.09;5154922;27;20163;-52
2021/06/07 03:00:57;;;;;;;1.80;1.70;;;23.00;46.70;;;26.60;31.74;101915.03;5155756;27;20074;-50
2021/06/07 03:03:23;;;;;;;1.80;1.70;;;22.90;46.60;;;26.60;31.89;101920.41;5156007;27;20110;-54
2021/06/07 03:05:52;;;;;;;1.80;1.70;;;23.00;46.70;;;26.60;31.75;101925.75;5155695;27;20139;-49
2021/06/07 03:08:23;;;;;;;1.75;1.65;;;23.00;46.70;;;26.56;31.74;101922.44;5155744;27;20039;-52
2021/06/07 03:10:55;;;;;;;1.73;1.63;;;22.90;46.60;;;26.58;31.98;101920.50;5137231;27;20043;-48
2021/06/07 03:13:24;;;;;;;1.85;1.75;;;23.00;46.70;;;26.57;31.74;101913.41;5155437;27;20083;-52
2021/06/07 03:15:56;;;;;;;1.80;1.70;;;22.90;46.60;;;26.56;31.87;101918.88;5136996;27;20047;-49
2021/06/07 03:18:23;;;;;;;1.70;1.60;;;23.00;46.70;;;26.59;31.85;101924.03;5136754;27;20042;-49
2021/06/07 03:20:51;;;;;;;2.00;1.90;;;23.00;46.70;;;26.57;32.03;101923.28;5155299;27;20079;-53
2021/06/07 03:23:21;;;;;;;1.73;1.63;;;23.00;46.80;;;26.56;31.81;101918.88;5136974;27;20137;-53
2021/06/07 03:25:49;;;;;;;1.65;1.55;;;22.90;46.70;;;26.55;31.90;101920.72;5155196;27;20082;-52
2021/06/07 03:28:17;;;;;;;1.80;1.70;;;22.90;46.70;;;26.57;31.87;101925.97;5154750;27;20131;-54
2021/06/07 03:30:44;;;;;;;2.03;1.92;;;22.90;46.70;;;26.57;31.81;101925.97;5135305;27;20138;-51
2021/06/07 03:33:11;;;;;;;1.67;1.58;;;22.90;46.70;;;26.56;31.92;101926.91;5154821;27;20060;-53
2021/06/07 03:35:42;;;;;;;2.00;1.90;;;22.90;46.80;;;26.55;31.84;101919.84;5155057;27;20464;-53
2021/06/07 03:38:08;;;;;;;1.98;1.88;;;22.90;46.80;;;26.55;31.98;101920.72;5155111;27;20064;-54
2021/06/07 03:40:38;;;;;;;1.70;1.60;;;22.90;46.80;;;26.51;31.93;101915.66;5154661;27;20081;-51
2021/06/07 03:43:05;;;;;;;1.77;1.67;;;22.90;46.80;;;26.55;32.05;101923.38;5154708;27;20047;-49
2021/06/07 03:45:31;;;;;;;2.00;1.90;;;22.90;46.80;;;26.54;31.95;101916.28;5154834;27;20046;-53
2021/06/07 03:47:57;;;;;;;1.80;1.70;;;22.90;46.80;;;26.53;31.99;101925.31;5154642;27;20043;-52
2021/06/07 03:50:27;;;;;;;1.77;1.67;;;22.90;46.80;;;26.50;32.01;101914.81;5154388;27;20050;-54
2021/06/07 03:52:53;;;;;;;1.80;1.70;;;22.90;46.80;;;26.51;32.03;101915.66;5155047;27;20045;-48
2021/06/07 03:55:21;;;;;;;1.80;1.70;;;22.90;46.80;;;26.53;32.16;101914.59;5136078;27;20452;-48
2021/06/07 03:57:47;;;;;;;1.80;1.70;;;22.90;46.90;;;26.53;32.06;101921.75;5155210;27;20129;-51
2021/06/07 04:00:18;;;;;;;2.53;1.95;;;22.90;46.90;;;26.50;32.09;101917.47;5154749;27;20041;-54
2021/06/07 04:02:44;;;;;;;1.40;1.30;;;22.90;46.90;;;26.56;32.09;101921.56;5154769;27;20055;-52
2021/06/07 04:05:12;;;;;;;1.92;1.83;;;22.90;46.90;;;26.54;31.93;101920.81;5154658;27;20527;-52
2021/06/07 04:07:39;;;;;;;1.80;1.70;;;22.90;46.90;;;26.50;31.94;101917.47;5154923;27;20444;-47
2021/06/07 04:10:08;;;;;;;1.80;1.70;;;22.90;46.90;;;26.48;32.12;101918.53;5154521;27;20654;-49
2021/06/07 04:12:35;;;;;;;1.67;1.58;;;22.90;46.90;;;26.49;32.10;101923.81;5154314;27;20130;-51
2021/06/07 04:15:01;;;;;;;2.30;2.10;;;22.90;46.90;;;26.50;32.04;101922.84;5154491;27;20049;-51
2021/06/07 04:17:27;;;;;;;2.00;1.90;;;22.90;46.90;;;26.51;32.13;101927.22;5154413;27;20047;-49
2021/06/07 04:19:52;;;;;;;1.92;1.83;;;22.90;46.90;;;26.51;32.07;101923.69;5154724;27;20046;-52
2021/06/07 04:22:18;;;;;;;2.10;1.90;;;22.90;46.90;;;26.50;32.10;101925.53;5154292;27;20053;-47
2021/06/07 04:24:45;;;;;;;2.05;1.95;;;22.90;46.90;;;26.52;32.18;101928.09;5136342;27;20049;-48
2021/06/07 04:27:13;;;;;;;2.20;2.10;;;22.90;46.90;;;26.50;32.12;101933.56;5154437;27;20050;-54
2021/06/07 04:29:42;;;;;;;2.28;2.10;;;22.90;46.90;;;26.48;32.08;101927.47;5154595;27;20502;-55
2021/06/07 04:32:08;;;;;;;1.70;1.60;;;22.90;46.90;;;26.51;32.08;101929.06;5154084;27;20058;-52
2021/06/07 04:34:35;;;;;;;1.80;1.70;;;22.90;47.00;;;26.48;31.99;101927.47;5154240;27;20046;-52
2021/06/07 04:37:03;;;;;;;1.90;1.80;;;22.90;47.00;;;26.49;32.13;101931.00;5154182;27;20050;-52
2021/06/07 04:39:29;;;;;;;2.42;2.22;;;22.90;47.00;;;26.47;32.10;101924.88;5154144;27;20050;-53
2021/06/07 04:41:54;;;;;;;1.80;1.70;;;22.90;47.00;;;26.50;32.01;101930.03;5154021;27;20112;-51
2021/06/07 04:44:20;;;;;;;1.83;1.73;;;22.90;47.00;;;26.51;32.13;101931.75;5154132;27;20495;-49
2021/06/07 04:46:46;;;;;;;1.90;1.80;;;22.90;47.00;;;26.48;32.13;101930.16;5154394;27;20444;-51
2021/06/07 04:49:12;;;;;;;1.92;1.83;;;22.90;47.00;;;26.46;32.05;101921.31;5154067;27;20054;-54
2021/06/07 04:51:38;;;;;;;2.10;2.00;;;22.90;46.90;;;26.49;32.05;101926.47;5153881;27;20049;-55
2021/06/07 04:54:04;;;;;;;1.90;1.80;;;22.90;47.00;;;26.49;32.05;101926.47;5154004;27;20049;-52
2021/06/07 04:56:30;;;;;;;1.83;1.73;;;22.90;47.00;;;26.49;31.93;101934.53;5153961;27;20054;-54
2021/06/07 04:58:55;;;;;;;1.90;1.80;;;22.80;46.90;;;26.49;32.11;101926.47;5153863;27;20046;-49
2021/06/07 05:01:21;;;;;;;1.92;1.83;;;22.90;47.00;;;26.48;32.14;101929.28;5154222;27;20046;-51
2021/06/07 05:03:47;;;;;;;1.98;1.88;;;22.90;47.00;;;26.48;32.10;101924.78;5157483;27;20399;-52
2021/06/07 05:06:13;;;;;;;1.80;1.70;;;22.80;46.90;;;26.49;32.14;101933.69;5157776;27;20074;-54
2021/06/07 05:08:39;;;;;;;1.70;1.60;;;22.80;47.00;;;26.50;32.07;101928.22;5157373;27;20352;-53
2021/06/07 05:11:05;;;;;;;2.15;2.03;;;22.90;47.00;;;26.50;32.23;101932.72;5137336;27;20142;-50
2021/06/07 05:13:30;;;;;;;2.10;2.00;;;22.90;47.00;;;26.50;31.99;101930.03;5136531;27;20058;-54
2021/06/07 05:15:57;;;;;;;2.08;1.98;;;22.90;47.00;;;26.48;32.01;101931.94;5157598;27;20093;-51
2021/06/07 05:18:24;;;;;;;2.03;1.88;;;22.80;46.90;;;26.50;32.06;101938.09;5156966;27;20072;-51
2021/06/07 05:20:51;;;;;;;1.90;1.80;;;22.90;47.00;;;26.48;32.10;101923.91;5157212;27;20046;-53
2021/06/07 05:23:20;;;;;;;2.17;2.03;;;22.90;47.00;;;26.48;32.14;101930.16;5157171;27;20053;-51
2021/06/07 05:25:46;;;;;;;1.80;1.70;;;22.90;47.00;;;26.49;32.04;101931.00;5157044;27;20077;-52
2021/06/07 05:28:15;;;;;;;1.98;1.88;;;22.90;47.00;;;26.49;32.14;101931.00;5156661;27;20053;-53
2021/06/07 05:30:43;;;;;;;1.90;1.80;;;22.90;47.00;;;26.49;32.12;101926.47;5156823;27;20047;-53
2021/06/07 05:33:09;;;;;;;1.80;1.70;;;22.90;47.00;;;26.47;32.22;101925.75;5157101;27;20471;-50
2021/06/07 05:35:39;;;;;;;1.98;1.88;;;22.90;47.00;;;26.49;31.95;101933.69;5157176;27;20050;-50
2021/06/07 05:38:07;;;;;;;2.22;2.03;;;22.90;47.00;;;26.48;32.16;101929.28;5137865;27;20057;-53
2021/06/07 05:40:34;;;;;;;2.10;2.00;;;22.90;47.00;;;26.50;32.01;101928.22;5156763;27;20061;-52
2021/06/07 05:43:01;;;;;;;2.00;1.90;;;22.90;47.00;;;26.51;32.21;101937.09;5119734;27;20433;-52
2021/06/07 05:45:27;;;;;;;1.85;1.65;;;22.90;47.00;;;26.52;32.07;101936.16;5157275;27;20054;-50
2021/06/07 05:47:56;;;;;;;2.30;2.10;;;22.90;47.00;;;26.50;32.07;101941.63;5156491;27;20061;-48
2021/06/07 05:50:23;;;;;;;2.55;2.35;;;22.90;47.00;;;26.51;32.08;101939.78;5156701;27;20108;-50
2021/06/07 05:52:50;;;;;;;2.33;2.13;;;22.90;47.00;;;26.50;32.18;101944.31;5156699;27;20177;-48
2021/06/07 05:55:39;;;;;;;1.92;1.83;;;22.90;47.00;;;26.49;31.93;101950.63;5156441;27;20043;-50
2021/06/07 05:58:18;;;;;;;1.90;1.70;;;22.90;47.00;;;26.50;32.10;101948.81;5156682;27;20551;-52
2021/06/07 06:00:49;;;;;;;1.83;1.73;;;22.90;47.00;;;26.53;32.09;101945.91;5156914;27;20066;-48
2021/06/07 06:03:15;;;;;;;2.40;2.20;;;22.90;47.00;;;26.53;32.03;101943.22;5156319;27;20074;-49
2021/06/07 06:05:41;;;;;;;1.92;1.80;;;22.90;47.00;;;26.53;32.21;101952.16;5156250;27;20979;-50
2021/06/07 06:08:09;;;;;;;2.10;2.00;;;22.90;47.00;;;26.51;31.99;101946.00;5136518;27;20051;-48
2021/06/07 06:10:36;;;;;;;2.03;1.92;;;22.90;46.90;;;26.54;31.99;101951.16;5156371;27;20054;-50
2021/06/07 06:13:03;;;;;;;2.00;1.85;;;22.90;46.90;;;26.53;32.08;101951.25;5136384;27;20133;-49
2021/06/07 06:15:29;;;;;;;2.13;2.00;;;22.90;46.90;;;26.52;32.14;101954.94;5155896;27;20056;-52
2021/06/07 06:17:55;;;;;;;1.98;1.88;;;22.90;46.90;;;26.52;32.02;101954.94;5156296;27;20539;-52
2021/06/07 06:20:25;;;;;;;2.05;1.95;;;22.90;47.00;;;26.55;32.06;101962.78;5156551;27;20050;-52
2021/06/07 06:22:51;;;;;;;2.45;1.85;;;22.90;46.90;;;26.54;32.05;101961.88;5156533;27;20399;-48
2021/06/07 06:25:18;;;;;;;2.45;2.25;;;22.90;47.00;;;26.54;32.10;101961.88;5156260;27;20059;-51
2021/06/07 06:27:44;;;;;;;2.15;2.03;;;22.90;47.00;;;26.55;32.01;101955.56;5156303;27;20043;-53
2021/06/07 06:30:19;;;;;;;2.22;2.03;;;22.90;47.00;;;26.50;32.01;101951.50;5156130;27;20133;-52
2021/06/07 06:32:50;;;;;;;2.60;2.40;;;22.90;47.00;;;26.52;31.99;101950.41;5156487;27;20535;-48
2021/06/07 06:35:17;;;;;;;2.22;2.08;;;22.90;47.00;;;26.55;32.01;101955.56;5156112;27;20069;-53
2021/06/07 06:37:44;;;;;;;2.00;1.90;;;22.90;47.00;;;26.56;32.03;101953.75;5156145;27;20078;-53
2021/06/07 06:40:24;;;;;;;2.00;1.83;;;22.90;47.00;;;26.54;32.00;101951.16;5135532;27;20047;-51
2021/06/07 06:42:53;;;;;;;1.80;1.70;;;22.90;47.00;;;26.54;32.00;101953.84;5136893;27;20056;-50
2021/06/07 06:45:20;;;;;;;1.90;1.80;;;22.90;46.90;;;26.58;32.03;101963.41;5155979;27;20119;-49
2021/06/07 06:47:47;;;;;;;2.30;2.10;;;22.90;46.90;;;26.58;32.05;101960.72;5156452;27;20050;-53
2021/06/07 06:50:14;;;;;;;1.98;1.88;;;23.00;47.00;;;26.57;31.98;101958.16;5155934;27;20103;-51
2021/06/07 06:52:40;;;;;;;2.10;1.90;;;22.90;46.90;;;26.59;32.02;101964.25;5155799;27;20042;-52
2021/06/07 06:55:07;;;;;;;1.77;1.67;;;23.00;46.90;;;26.56;31.95;101957.31;5155939;27;20042;-53
2021/06/07 06:57:33;;;;;;;2.00;1.90;;;23.00;46.90;;;26.57;31.93;101959.00;5155661;27;20137;-50
2021/06/07 06:59:59;;;;;;;2.00;1.90;;;23.00;46.90;;;26.62;31.96;101972.09;5155677;27;20042;-53
2021/06/07 07:02:25;;;;;;;1.90;1.80;;;23.00;46.90;;;26.65;31.98;101977.31;5155455;27;20407;-53
2021/06/07 07:04:50;;;;;;;1.80;1.70;;;23.00;46.80;;;26.64;31.90;101974.72;5136373;27;20047;-51
2021/06/07 07:07:16;;;;;;;2.40;2.20;;;23.00;46.90;;;26.65;31.95;101977.31;5120389;27;20039;-52
2021/06/07 07:09:43;;;;;;;1.92;1.83;;;23.00;46.80;;;26.68;32.02;101986.94;5155556;27;20441;-52
2021/06/07 07:12:12;;;;;;;2.30;2.10;;;23.00;46.80;;;26.68;31.90;101985.13;5155324;27;20046;-52
2021/06/07 07:14:39;;;;;;;2.63;2.17;;;23.00;46.80;;;26.66;31.98;101978.16;5136285;27;20155;-50
2021/06/07 07:17:05;;;;;;;2.83;2.10;;;23.00;46.80;;;26.70;31.77;101993.94;5155333;27;20074;-54
2021/06/07 07:19:31;;;;;;;2.00;1.90;;;23.00;46.80;;;26.71;31.79;101992.09;5155224;27;20093;-50
2021/06/07 07:21:57;;;;;;;2.20;2.00;;;23.00;46.70;;;26.71;31.84;101992.94;5155218;27;20051;-52
2021/06/07 07:24:23;;;;;;;1.92;1.83;;;23.10;46.80;;;26.74;31.86;101991.91;5154798;27;20043;-53
2021/06/07 07:26:48;;;;;;;2.35;1.85;;;23.10;46.70;;;26.74;31.56;101995.44;5136497;27;20057;-53
2021/06/07 07:29:14;;;;;;;1.95;1.85;;;23.10;46.70;;;26.76;31.65;101996.19;5155247;27;20050;-49
2021/06/07 07:31:40;;;;;;;1.98;1.88;;;23.10;46.70;;;26.79;31.67;101989.75;5154989;27;20448;-53
2021/06/07 07:34:06;;;;;;;2.00;1.90;;;23.10;46.70;;;26.78;31.81;101994.28;5155107;27;20130;-56
2021/06/07 07:36:31;;;;;;;2.15;1.90;;;23.10;46.70;;;26.80;31.67;101995.00;5155622;27;20047;-54
2021/06/07 07:38:57;;;;;;;1.90;1.80;;;23.10;46.60;;;26.82;31.62;101991.38;5154782;27;20476;-51
2021/06/07 07:41:25;;;;;;;2.13;1.92;;;23.10;46.60;;;26.77;31.67;101981.81;5136326;27;20050;-51
2021/06/07 07:43:51;;;;;;;2.17;2.08;;;23.10;46.60;;;26.87;31.58;101992.75;5154806;27;20050;-53
2021/06/07 07:46:16;;;;;;;2.20;2.00;;;23.10;46.60;;;26.89;31.78;101992.66;5154723;27;20049;-55
2021/06/07 07:48:42;;;;;;;2.05;1.95;;;23.20;46.60;;;26.90;31.46;101986.34;5154671;27;20046;-53
2021/06/07 07:51:08;;;;;;;1.95;1.85;;;23.20;46.50;;;26.93;31.60;101988.78;5154792;27;20054;-48
2021/06/07 07:53:34;;;;;;;2.08;1.90;;;23.20;46.50;;;26.97;31.54;101996.53;5154789;27;20050;-53
2021/06/07 07:56:00;;;;;;;2.15;1.95;;;23.20;46.40;;;27.02;31.40;101992.66;5155253;27;20050;-53
2021/06/07 07:58:26;;;;;;;1.88;1.77;;;23.30;46.40;;;27.08;31.53;101994.91;5154714;27;20043;-51
2021/06/07 08:00:55;;;;;;;1.80;1.70;;;23.30;46.30;;;27.08;31.23;101995.78;5136062;27;20049;-51
2021/06/07 08:03:21;;;;;;;1.80;1.70;;;23.30;46.20;;;27.17;31.23;101988.91;5155162;27;20045;-49
2021/06/07 08:05:47;;;;;;;1.98;1.88;;;23.40;46.20;;;27.26;31.32;101990.06;5154722;27;20490;-53
2021/06/07 08:08:13;;;;;;;2.40;2.20;;;23.40;46.00;;;27.31;31.12;101986.09;5154190;27;20046;-55
2021/06/07 08:10:39;;;;;;;2.33;2.13;;;23.60;46.00;;;27.38;31.19;101980.28;5154676;27;20051;-54
2021/06/07 08:13:05;;;;;;;2.30;2.10;;;23.60;45.80;;;27.50;30.95;101988.34;5154420;27;20043;-49
2021/06/07 08:15:34;;;;;;;2.28;2.08;;;23.70;45.80;;;27.60;30.71;101982.28;5154323;27;20054;-54
2021/06/07 08:18:01;;;;;;;2.03;1.83;;;23.80;46.10;;;27.71;30.66;101987.72;5154519;27;20381;-53
2021/06/07 08:20:27;;;;;;;1.92;1.83;;;23.90;45.40;;;27.74;30.67;101979.44;5154612;27;20137;-53
2021/06/07 08:22:55;;;;;;;2.28;2.08;;;23.90;45.20;;;27.83;30.57;101984.16;5154333;27;20049;-51
2021/06/07 08:25:22;;;;;;;2.30;2.10;;;23.90;45.20;;;27.86;30.29;101978.53;5135919;27;20050;-51
2021/06/07 08:27:49;;;;;;;2.20;1.95;;;24.00;45.20;;;27.87;30.47;101977.56;5136101;27;20091;-55
2021/06/07 08:30:16;;;;;;;2.00;1.90;;;24.00;45.10;;;27.90;30.34;101981.88;5136210;27;20407;-53
2021/06/07 08:32:42;;;;;;;2.33;2.13;;;24.00;45.10;;;27.90;30.16;101976.50;5154167;27;20050;-55
2021/06/07 08:35:10;;;;;;;1.77;1.67;;;24.00;45.00;;;27.94;30.29;101986.06;5154156;27;20054;-54
2021/06/07 08:37:37;;;;;;;2.30;2.10;;;24.00;45.10;;;27.98;30.40;101978.63;5153045;27;20055;-56
2021/06/07 08:40:10;;;;;;;2.10;2.00;;;24.00;45.00;;;28.02;30.45;101983.66;5153968;27;20080;-53
2021/06/07 08:42:41;;;;;;;2.20;2.10;;;24.10;44.90;;;28.08;29.98;101983.22;5154147;27;20492;-56
2021/06/07 08:45:13;;;;;;;2.40;2.13;;;24.10;44.80;;;28.08;30.29;101972.47;5154595;27;20047;-54
2021/06/07 08:47:42;;;;;;;2.10;2.00;;;24.20;44.70;;;28.13;30.05;101984.69;5135702;27;20054;-54
2021/06/07 08:50:10;;;;;;;2.25;2.08;;;24.20;44.60;;;28.19;30.12;101987.78;5153941;27;20448;-54
2021/06/07 08:52:36;;;;;;;2.40;2.20;;;24.20;44.50;;;28.20;29.97;101983.25;5154122;27;20134;-48
2021/06/07 08:55:06;;;;;;;1.92;1.80;;;24.30;44.50;;;28.21;29.88;101984.97;5135570;27;20106;-54
2021/06/07 08:57:40;;;;;;;2.22;2.03;;;24.20;44.50;;;28.20;29.71;101973.38;5154027;27;20153;-48
2021/06/07 09:00:09;;;;;;;2.17;1.98;;;24.20;44.50;;;28.23;29.95;101980.34;5154241;27;20050;-52
2021/06/07 09:02:38;;;;;;;2.38;1.73;;;24.20;44.40;;;28.24;29.95;101979.38;5153779;27;20046;-55
2021/06/07 09:05:05;;;;;;;1.75;1.65;;;24.30;44.50;;;28.23;29.73;101970.47;5153916;27;20368;-52
2021/06/07 09:07:31;;;;;;;1.92;1.83;;;24.30;44.40;;;28.25;29.97;101979.25;5154206;27;20046;-53
2021/06/07 09:10:11;;;;;;;2.30;1.88;;;24.30;44.40;;;28.25;29.71;101981.06;5153927;27;20046;-53
2021/06/07 09:12:41;;;;;;;1.98;1.88;;;24.40;44.40;;;28.28;29.94;101983.53;5153505;27;20507;-51
2021/06/07 09:15:13;;;;;;;2.33;2.13;;;24.40;44.40;;;28.34;29.46;101982.22;5153709;27;20085;-50
2021/06/07 09:17:46;;;;;;;2.25;2.05;;;24.40;44.30;;;28.33;29.69;101978.66;5153889;27;20107;-53
2021/06/07 09:20:17;;;;;;;2.25;2.10;;;24.40;44.30;;;28.36;29.73;101985.66;5153627;27;20042;-50
2021/06/07 09:22:56;;;;;;;;;;;24.40;44.30;;;28.51;29.61;101984.47;5154444;27;20099;-50
2021/06/07 09:25:29;;;;;;;2.08;1.88;;;24.40;44.30;;;28.42;29.64;101980.66;5153358;27;19919;-51
2021/06/07 09:28:09;;;;;;;1.90;1.80;;;24.40;44.30;;;28.40;29.57;101974.53;5153601;27;20042;-50
2021/06/07 09:30:58;;;;;;;2.17;2.07;;;24.50;44.30;;;28.44;29.49;101978.69;5133601;27;20040;-52
2021/06/07 09:33:43;;;;;;;2.33;2.13;;;24.50;44.30;;;28.44;29.60;101967.09;5117712;27;20437;-51
2021/06/07 09:36:14;;;;;;;2.10;1.95;;;24.50;44.20;;;28.49;29.76;101978.34;5153447;27;20395;-53
2021/06/07 09:38:57;;;;;;;1.98;1.88;;;24.50;44.20;;;28.51;29.61;101983.63;5134723;27;20090;-52
2021/06/07 09:41:26;;;;;;;2.03;1.92;;;24.50;44.10;;;28.52;29.33;101980.81;5135276;27;20520;-52
2021/06/07 09:44:01;;;;;;;2.60;2.40;;;24.60;44.20;;;28.49;29.65;101972.13;5153951;27;20047;-53
2021/06/07 09:46:31;;;;;;;2.42;2.22;;;24.50;44.20;;;28.53;29.39;101977.13;5153656;27;20459;-53
2021/06/07 09:49:15;;;;;;;2.88;2.22;;;24.60;44.30;;;28.53;29.50;101985.19;5135980;27;20058;-50
2021/06/07 09:51:56;;;;;;;2.63;2.42;;;24.60;44.30;;;28.55;29.69;101980.59;5121082;27;20046;-54
2021/06/07 09:54:23;;;;;;;2.40;2.20;;;24.60;44.20;;;28.59;29.47;101975.84;5138401;27;20058;-51
2021/06/07 09:56:55;;;;;;;2.42;2.22;;;24.60;44.10;;;28.59;29.75;101978.53;5138248;27;20038;-51
2021/06/07 09:59:34;;;;;;;2.30;2.10;;;24.70;44.10;;;28.56;29.59;101971.53;5157009;27;20054;-53
2021/06/07 10:02:12;;;;;;;2.85;2.30;;;24.70;44.20;;;28.60;29.80;101981.13;5156840;27;20047;-55
2021/06/07 10:05:00;;;;;;;2.45;2.25;;;24.70;44.20;;;28.57;29.69;101978.66;5157272;27;20038;-55
2021/06/07 10:07:26;;;;;;;2.70;2.30;;;24.70;44.10;;;28.61;29.51;101980.13;5156432;27;20047;-53
2021/06/07 10:10:23;;;;;;;3.15;2.67;;;24.70;44.20;;;28.61;29.50;101988.19;5157017;27;20047;-54
2021/06/07 10:12:49;;;;;;;3.33;2.67;;;24.70;44.20;;;28.63;29.38;101977.31;5156518;27;20054;-50
2021/06/07 10:15:33;;;;;;;2.35;2.15;;;24.70;44.10;;;28.64;29.69;101974.50;5156613;27;20055;-50
2021/06/07 10:18:02;;;;;;;2.92;2.65;;;24.80;44.10;;;28.68;29.34;101980.50;5156162;27;20043;-49
2021/06/07 10:22:58;;;;;;;5.30;2.67;;;24.90;44.00;;;28.69;29.35;101970.63;5156142;27;20133;-52